»·PEaware :: ASA720 KLAX-KSFO

ASA720 :: KLAX-KSFO

FLIGHT INFORMATION

Flight Status: Arrived
Operator:
Alaska Airlines
More flights by this operator :: More flights under this callsign
Pilot: Alex C. (14758)
Aircraft: AIRBUS A320
(A320)
More flights by this aircraft type
Origin: KLAX Los Angeles Intl
United States
Destination: KSFO San Francisco Intl
United States
More flights between these airports :: More routes between these airports
Route: +SUMMR1 STOKD SERFR SERFR3
File this flight plan on PilotEdge
Remarks:
Altitude:
(Current/Filed)
28,000ft
Speed:
(Current/Filed)
460kts
Departed: 05-Dec-18 10:11 PM
Arrived: 05-Dec-18 11:03 PM
Distance/Time
Traveled:
293nm/0:52
Distance/Time
To Go:
Arrived

Flight Plot

Page will automatically refresh every two minutes.

Flight plan parsing failed; only flown route is shown


Map Options




Map Legend


Flown Route
Filed Route
Departure Airport
Arrival Airport
Navaid (VOR, NDB)
Fix

Horizontal Profiles

Position Reports

Time Latitude Longitude Heading Altitude Ground
Speed
05-Dec-18 21:57 33.941335 -118.397647 83 133ft 0kts
05-Dec-18 21:58 33.941335 -118.397647 83 133ft 0kts
05-Dec-18 21:59 33.941335 -118.397647 83 133ft 0kts
05-Dec-18 22:00 33.941335 -118.397647 83 133ft 0kts
05-Dec-18 22:01 33.941297 -118.398101 96 133ft 0kts
05-Dec-18 22:02 33.941305 -118.398149 107 133ft 0kts
05-Dec-18 22:03 33.941593 -118.398315 199 133ft 0kts
05-Dec-18 22:04 33.941593 -118.398315 199 133ft 0kts
05-Dec-18 22:05 33.941593 -118.398315 199 133ft 0kts
05-Dec-18 22:06 33.941590 -118.398316 199 133ft 0kts
05-Dec-18 22:07 33.940387 -118.398265 173 133ft 0kts
05-Dec-18 22:08 33.939019 -118.397957 137 133ft 8kts
05-Dec-18 22:09 33.939587 -118.391855 83 133ft 34kts
05-Dec-18 22:10 33.940505 -118.383363 83 133ft 47kts
05-Dec-18 22:11 33.940661 -118.380619 113 133ft 0kts
05-Dec-18 22:12 33.939390 -118.384348 264 133ft 78kts
05-Dec-18 22:13 33.935300 -118.424139 263 595ft 214kts
05-Dec-18 22:14 33.928180 -118.500936 263 3160ft 247kts
05-Dec-18 22:15 33.921420 -118.582739 262 5772ft 273kts
05-Dec-18 22:16 33.917687 -118.672883 266 8822ft 283kts
05-Dec-18 22:17 33.917120 -118.771180 267 10329ft 344kts
05-Dec-18 22:18 33.918723 -118.892312 269 12745ft 374kts
05-Dec-18 22:19 33.926338 -119.018402 287 15560ft 390kts
05-Dec-18 22:20 33.982632 -119.133149 297 18005ft 408kts
05-Dec-18 22:21 34.055210 -119.229129 326 20032ft 437kts
05-Dec-18 22:22 34.149300 -119.307048 318 21802ft 446kts
05-Dec-18 22:23 34.239091 -119.385257 318 23301ft 458kts
05-Dec-18 22:24 34.340185 -119.471773 319 24902ft 467kts
05-Dec-18 22:25 34.430071 -119.555555 308 26179ft 465kts
05-Dec-18 22:26 34.516563 -119.662058 308 27884ft 454kts
05-Dec-18 22:27 34.600979 -119.766271 307 27947ft 461kts
05-Dec-18 22:28 34.680458 -119.864616 307 27940ft 461kts
05-Dec-18 22:29 34.763274 -119.967421 308 27935ft 480kts
05-Dec-18 22:30 34.849521 -120.074719 308 27938ft 478kts
05-Dec-18 22:31 34.941707 -120.189838 308 27929ft 479kts
05-Dec-18 22:32 35.034348 -120.305937 308 27928ft 480kts
05-Dec-18 22:33 35.128239 -120.418095 312 27927ft 483kts
05-Dec-18 22:34 35.220446 -120.521438 311 27926ft 482kts
05-Dec-18 22:35 35.311923 -120.624316 312 27927ft 481kts
05-Dec-18 22:36 35.407439 -120.732185 311 27928ft 481kts
05-Dec-18 22:37 35.529170 -120.860520 318 27943ft 484kts
05-Dec-18 22:38 35.987910 -121.289167 319 27931ft 482kts
05-Dec-18 22:39 36.118142 -121.403900 326 27914ft 419kts
05-Dec-18 22:40 36.382350 -121.610174 327 20504ft 383kts
05-Dec-18 22:41 36.467196 -121.677000 326 19944ft 380kts
05-Dec-18 22:42 36.552263 -121.744241 326 18924ft 376kts
05-Dec-18 22:43 36.637065 -121.811421 327 17261ft 366kts
05-Dec-18 22:44 36.719693 -121.876976 327 15583ft 358kts
05-Dec-18 22:45 36.798854 -121.909722 346 14240ft 352kts
05-Dec-18 22:46 36.877257 -121.932076 347 12934ft 343kts
05-Dec-18 22:47 36.954239 -121.954055 344 11636ft 334kts
05-Dec-18 22:48 37.027700 -121.982759 342 10352ft 325kts
05-Dec-18 22:49 37.098153 -122.010307 342 10015ft 287kts
05-Dec-18 22:50 37.157279 -122.033289 343 8998ft 283kts
05-Dec-18 22:51 37.217909 -122.056825 343 8043ft 280kts
05-Dec-18 22:52 37.276803 -122.079693 343 8011ft 269kts
05-Dec-18 22:53 37.335808 -122.102586 343 7432ft 265kts
05-Dec-18 22:54 37.397298 -122.126135 344 6189ft 258kts
05-Dec-18 22:55 37.453452 -122.147121 344 5704ft 212kts
05-Dec-18 22:56 37.506177 -122.166289 345 3821ft 205kts
05-Dec-18 22:57 37.545104 -122.198164 285 2922ft 175kts
05-Dec-18 22:58 37.549287 -122.251464 319 2392ft 184kts
05-Dec-18 22:59 37.582534 -122.289684 297 1352ft 170kts
05-Dec-18 23:00 37.600171 -122.332603 301 505ft 142kts
05-Dec-18 23:01 37.616142 -122.368823 303 22ft 111kts
05-Dec-18 23:02 37.618561 -122.380018 155 21ft 15kts
05-Dec-18 23:03 37.617483 -122.380381 267 21ft 3kts
05-Dec-18 23:04 37.617480 -122.380459 267 21ft 0kts
05-Dec-18 23:05 37.617480 -122.380459 267 21ft 0kts

Navigation Log

Ident Type
Flight plan parsing failed, navigation log unavailable